Terminal Aerodrome Forecast
Issued by NWS

Home | Current Version | Previous Version | Text Only | Print | Product List | Glossary On
Versions: 1 2 3 4 5 6 7 8 9 10 11 12 13 14 15 16 17 18 19 20 21 22 23 24 25
000
FTUS41 KBUF 040305 AAA
TAFIAG
TAF AMD
KIAG 040305Z 0403/0424 21006KT P6SM SKC
     FM041300 21013KT P6SM SCT120
     FM041600 22019G27KT P6SM SCT090
     FM042000 23020G30KT P6SM BKN080
     FM042300 24015KT P6SM BKN080=

USA.gov is the U.S. government's official web portal to all federal, state and local government web resources and services.